createdAt,value
2022-12-04T00:01:50.549Z,-14.99
2022-12-04T00:04:55.323Z,-13.52
2022-12-04T00:07:59.690Z,-12.88
2022-12-04T00:11:09.556Z,-12.12
2022-12-04T00:14:13.975Z,-11.50
2022-12-04T00:17:18.627Z,-11.92
2022-12-04T00:20:23.910Z,-11.06
2022-12-04T00:23:29.894Z,-10.60
2022-12-04T00:26:34.471Z,-11.18
2022-12-04T00:29:38.820Z,-12.09
2022-12-04T00:32:43.405Z,-12.12
2022-12-04T00:35:47.771Z,-11.46
2022-12-04T00:38:52.645Z,-11.01
2022-12-04T00:41:56.931Z,-11.22
2022-12-04T00:45:01.493Z,-11.30
2022-12-04T00:48:06.648Z,-11.17
2022-12-04T00:51:17.262Z,-10.83
2022-12-04T00:54:21.770Z,-11.58
2022-12-04T00:57:26.077Z,-10.26
2022-12-04T01:00:30.502Z,-11.33
2022-12-04T01:03:35.296Z,-13.03
2022-12-04T01:06:40.107Z,-11.56
2022-12-04T01:09:44.233Z,-11.82
2022-12-04T01:12:52.564Z,-11.25
2022-12-04T01:15:56.957Z,-12.49
2022-12-04T01:19:02.962Z,-13.11
2022-12-04T01:22:07.619Z,-12.86
2022-12-04T01:25:12.580Z,-12.64
2022-12-04T01:28:17.097Z,-12.04
2022-12-04T01:31:23.526Z,-11.69
2022-12-04T01:34:27.746Z,-12.14
2022-12-04T01:37:34.604Z,-12.96
2022-12-04T01:40:48.493Z,-12.15
2022-12-04T01:44:17.873Z,-11.62
2022-12-04T01:47:22.366Z,-11.94
2022-12-04T01:50:30.841Z,-12.51
2022-12-04T01:53:36.685Z,-11.35
2022-12-04T01:56:49.351Z,-12.03
2022-12-04T02:00:13.352Z,-13.04
2022-12-04T02:03:18.792Z,-13.09
2022-12-04T02:06:22.969Z,-12.25
2022-12-04T02:09:28.226Z,-11.81
2022-12-04T02:13:21.492Z,-13.27
2022-12-04T02:17:02.091Z,-13.23
2022-12-04T02:20:26.988Z,-14.05
2022-12-04T02:23:57.358Z,-13.92
2022-12-04T02:27:10.019Z,-13.31
2022-12-04T02:30:16.450Z,-13.60
2022-12-04T02:33:27.371Z,-13.77
2022-12-04T02:36:37.725Z,-13.78
2022-12-04T02:39:48.933Z,-13.47
2022-12-04T02:43:10.985Z,-13.02
2022-12-04T02:46:51.601Z,-13.55
2022-12-04T02:50:07.993Z,-13.87
2022-12-04T02:53:18.190Z,-13.20
2022-12-04T02:56:30.239Z,-12.45
2022-12-04T02:59:44.005Z,-14.26
2022-12-04T03:03:08.581Z,-13.43
2022-12-04T03:06:15.141Z,-12.99
2022-12-04T03:09:26.588Z,-12.98
2022-12-04T03:12:50.730Z,-12.64
2022-12-04T03:16:05.644Z,-12.05
2022-12-04T03:19:10.525Z,-12.00
2022-12-04T03:22:19.399Z,-11.83
2022-12-04T03:25:31.863Z,-12.18
2022-12-04T03:29:05.125Z,-12.15
2022-12-04T03:32:15.013Z,-12.00
2022-12-04T03:35:32.152Z,-11.95
2022-12-04T03:39:00.338Z,-11.96
2022-12-04T03:42:22.072Z,-11.79
2022-12-04T03:45:28.877Z,-11.82
2022-12-04T03:48:57.456Z,-12.53
2022-12-04T03:52:14.442Z,-12.66
2022-12-04T03:55:33.875Z,-12.85
2022-12-04T03:58:43.298Z,-12.95
2022-12-04T04:01:50.605Z,-12.58
2022-12-04T04:04:58.893Z,-12.89
2022-12-04T04:08:24.647Z,-12.90
2022-12-04T04:11:49.880Z,-12.74
2022-12-04T04:15:20.502Z,-13.16
2022-12-04T04:18:44.799Z,-13.40
2022-12-04T04:22:10.042Z,-13.70
2022-12-04T04:25:21.727Z,-13.32
2022-12-04T04:28:42.162Z,-13.22
2022-12-04T04:32:08.815Z,-14.12
2022-12-04T04:35:21.275Z,-14.51
2022-12-04T04:38:30.086Z,-14.34
2022-12-04T04:41:57.254Z,-13.96
2022-12-04T04:45:15.047Z,-14.59
2022-12-04T04:48:35.984Z,-13.93
2022-12-04T04:51:41.075Z,-14.91
2022-12-04T04:54:47.425Z,-14.64
2022-12-04T04:57:52.139Z,-14.23
2022-12-04T05:01:08.846Z,-14.90
2022-12-04T05:04:13.628Z,-15.15
2022-12-04T05:07:18.241Z,-14.65
2022-12-04T05:10:22.680Z,-15.17
2022-12-04T05:13:28.532Z,-15.04
2022-12-04T05:16:33.346Z,-14.47
2022-12-04T05:19:57.292Z,-15.15
2022-12-04T05:23:02.290Z,-15.09
2022-12-04T05:26:07.093Z,-15.45
2022-12-04T05:29:11.809Z,-15.33
2022-12-04T05:32:16.161Z,-15.22
2022-12-04T05:35:20.761Z,-15.56
2022-12-04T05:38:25.087Z,-15.39
2022-12-04T05:41:29.793Z,-15.44
2022-12-04T05:44:34.162Z,-15.43
2022-12-04T05:47:45.878Z,-15.09
2022-12-04T05:50:50.303Z,-15.90
2022-12-04T05:53:54.835Z,-15.89
2022-12-04T05:56:59.073Z,-15.92
2022-12-04T06:00:04.021Z,-16.04
2022-12-04T06:03:15.178Z,-16.04
2022-12-04T06:06:25.402Z,-16.57
2022-12-04T06:09:30.042Z,-16.26
2022-12-04T06:12:34.381Z,-16.49
2022-12-04T06:15:42.163Z,-16.15
2022-12-04T06:18:46.643Z,-16.16
2022-12-04T06:21:54.158Z,-15.90
2022-12-04T06:24:58.510Z,-16.09
2022-12-04T06:28:03.249Z,-16.22
2022-12-04T06:31:13.128Z,-16.46
2022-12-04T06:34:17.811Z,-16.32
2022-12-04T06:37:24.278Z,-16.65
2022-12-04T06:40:28.738Z,-16.42
2022-12-04T06:43:33.374Z,-16.07
2022-12-04T06:46:41.011Z,-16.33
2022-12-04T06:49:52.770Z,-16.56
2022-12-04T06:52:57.735Z,-16.63
2022-12-04T06:56:05.547Z,-16.61
2022-12-04T06:59:11.454Z,-17.34
2022-12-04T07:02:15.949Z,-17.65
2022-12-04T07:05:20.668Z,-17.29
2022-12-04T07:08:25.126Z,-17.21
2022-12-04T07:11:31.046Z,-17.28
2022-12-04T07:14:35.450Z,-17.61
2022-12-04T07:17:40.150Z,-17.61
2022-12-04T07:20:44.326Z,-17.54
2022-12-04T07:23:53.715Z,-17.76
2022-12-04T07:26:58.147Z,-17.55
2022-12-04T07:30:02.635Z,-17.89
2022-12-04T07:33:07.574Z,-17.78
2022-12-04T07:36:15.482Z,-17.84
2022-12-04T07:39:19.882Z,-18.13
2022-12-04T07:42:24.751Z,-17.57
2022-12-04T07:45:28.847Z,-17.48
2022-12-04T07:48:33.619Z,-17.68
2022-12-04T07:51:38.188Z,-18.06
2022-12-04T07:54:42.713Z,-17.75
2022-12-04T07:57:47.385Z,-18.15
2022-12-04T08:00:51.609Z,-18.03
2022-12-04T08:03:58.742Z,-17.99
2022-12-04T08:07:03.121Z,-17.78
2022-12-04T08:10:07.904Z,-17.65
2022-12-04T08:13:12.008Z,-17.58
2022-12-04T08:16:17.478Z,-17.76
2022-12-04T08:19:22.733Z,-18.15
2022-12-04T08:22:27.102Z,-18.48
2022-12-04T08:25:31.537Z,-18.51
2022-12-04T08:28:36.866Z,-18.48
2022-12-04T08:31:41.812Z,-18.25
2022-12-04T08:34:49.785Z,-18.25
2022-12-04T08:37:56.814Z,-18.52
2022-12-04T08:41:05.962Z,-18.96
2022-12-04T08:44:11.312Z,-18.81
2022-12-04T08:47:15.845Z,-19.08
2022-12-04T08:50:20.256Z,-19.11
2022-12-04T08:53:25.653Z,-18.70
2022-12-04T08:56:30.664Z,-19.29
2022-12-04T08:59:35.063Z,-19.42
2022-12-04T09:02:39.817Z,-18.73
2022-12-04T09:05:46.670Z,-18.78
2022-12-04T09:08:55.205Z,-19.29
2022-12-04T09:11:59.549Z,-19.39
2022-12-04T09:15:04.244Z,-19.30
2022-12-04T09:18:10.267Z,-19.74
2022-12-04T09:21:16.960Z,-19.88
2022-12-04T09:24:21.620Z,-20.41
2022-12-04T09:27:27.427Z,-19.81
2022-12-04T09:30:31.781Z,-19.89
2022-12-04T09:33:36.436Z,-19.96
2022-12-04T09:36:40.619Z,-19.67
2022-12-04T09:39:45.384Z,-20.10
2022-12-04T09:43:10.839Z,-20.07
2022-12-04T09:46:29.144Z,-19.81
2022-12-04T09:49:59.447Z,-19.85
2022-12-04T09:53:06.691Z,-19.95
2022-12-04T09:56:18.251Z,-19.75
2022-12-04T09:59:28.986Z,-20.03
2022-12-04T10:02:36.513Z,-20.07
2022-12-04T10:05:53.513Z,-20.04
2022-12-04T10:09:12.007Z,-19.92
2022-12-04T10:12:34.513Z,-20.10
2022-12-04T10:15:51.184Z,-19.93
2022-12-04T10:19:28.884Z,-20.12
2022-12-04T10:22:59.232Z,-20.20
2022-12-04T10:26:06.733Z,-20.48
2022-12-04T10:29:20.313Z,-20.43
2022-12-04T10:32:30.200Z,-20.78
2022-12-04T10:35:38.877Z,-20.36
2022-12-04T10:39:22.662Z,-20.31
2022-12-04T10:42:50.639Z,-20.03
2022-12-04T10:45:55.310Z,-20.30
2022-12-04T10:49:13.608Z,-20.05
2022-12-04T10:52:18.656Z,-20.29
2022-12-04T10:55:34.751Z,-20.18
2022-12-04T10:58:39.172Z,-20.52
2022-12-04T11:01:43.920Z,-20.84
2022-12-04T11:04:59.508Z,-20.70
2022-12-04T11:08:06.738Z,-21.24
2022-12-04T11:11:14.494Z,-21.60
2022-12-04T11:14:24.394Z,-21.28
2022-12-04T11:17:29.049Z,-21.22
2022-12-04T11:20:33.927Z,-21.14
2022-12-04T11:23:50.247Z,-21.93
2022-12-04T11:26:55.155Z,-22.07
2022-12-04T11:30:04.021Z,-21.84
2022-12-04T11:33:19.513Z,-22.05
2022-12-04T11:36:29.515Z,-21.87
2022-12-04T11:39:40.894Z,-21.43
2022-12-04T11:42:45.547Z,-21.66
2022-12-04T11:46:06.325Z,-21.59
2022-12-04T11:49:25.604Z,-21.69
2022-12-04T11:52:42.020Z,-22.10
2022-12-04T11:56:03.162Z,-22.49
2022-12-04T11:59:28.879Z,-22.37
2022-12-04T12:02:52.251Z,-22.17
2022-12-04T12:06:08.118Z,-22.31
2022-12-04T12:09:18.360Z,-22.19
2022-12-04T12:12:31.722Z,-22.46
2022-12-04T12:15:54.104Z,-22.35
2022-12-04T12:19:20.642Z,-22.25
2022-12-04T12:22:29.537Z,-22.31
2022-12-04T12:26:06.029Z,-22.22
2022-12-04T12:29:17.332Z,-22.35
2022-12-04T12:32:47.517Z,-22.20
2022-12-04T12:36:07.361Z,-22.33
2022-12-04T12:39:41.220Z,-22.32
2022-12-04T12:42:58.236Z,-22.81
2022-12-04T12:46:22.313Z,-22.61
2022-12-04T12:49:36.643Z,-22.38
2022-12-04T12:52:53.828Z,-22.88
2022-12-04T12:56:03.530Z,-22.98
2022-12-04T12:59:18.396Z,-23.04
2022-12-04T13:02:40.336Z,-22.74
2022-12-04T13:05:52.062Z,-23.01
2022-12-04T13:09:07.080Z,-23.09
2022-12-04T13:12:15.978Z,-23.14
2022-12-04T13:15:25.726Z,-23.04
2022-12-04T13:18:35.677Z,-23.23
2022-12-04T13:21:46.573Z,-22.91
2022-12-04T13:25:08.982Z,-22.97
2022-12-04T13:28:38.765Z,-22.71
2022-12-04T13:32:27.467Z,-22.84
2022-12-04T13:35:45.832Z,-22.76
2022-12-04T13:39:03.748Z,-22.84
2022-12-04T13:42:21.618Z,-22.93
2022-12-04T13:45:33.344Z,-23.32
2022-12-04T13:48:41.667Z,-23.41
2022-12-04T13:51:48.890Z,-23.39
2022-12-04T13:55:02.263Z,-23.64
2022-12-04T13:58:12.916Z,-23.50
2022-12-04T14:01:46.296Z,-24.00
2022-12-04T14:05:08.893Z,-23.43
2022-12-04T14:08:27.540Z,-23.60
2022-12-04T14:11:43.996Z,-23.83
2022-12-04T14:15:01.711Z,-24.05
2022-12-04T14:18:13.496Z,-24.06
2022-12-04T14:21:17.903Z,-24.00
2022-12-04T14:24:39.841Z,-23.67
2022-12-04T14:27:46.259Z,-23.69
2022-12-04T14:31:20.292Z,-23.45
2022-12-04T14:34:35.344Z,-23.90
2022-12-04T14:37:46.063Z,-23.69
2022-12-04T14:40:53.893Z,-23.53
2022-12-04T14:43:59.257Z,-23.41
2022-12-04T14:47:34.794Z,-23.27
2022-12-04T14:50:55.197Z,-23.26
2022-12-04T14:54:27.732Z,-23.48
2022-12-04T14:57:55.393Z,-23.42
2022-12-04T15:01:05.608Z,-23.14
2022-12-04T15:04:34.864Z,-23.27
2022-12-04T15:07:54.878Z,-23.26
2022-12-04T15:11:18.355Z,-23.34
2022-12-04T15:14:22.649Z,-23.43
2022-12-04T15:17:26.896Z,-23.81
2022-12-04T15:20:43.848Z,-23.93
2022-12-04T15:23:48.324Z,-23.38
2022-12-04T15:26:56.605Z,-23.37
2022-12-04T15:30:03.657Z,-23.20
2022-12-04T15:33:14.121Z,-23.64
2022-12-04T15:36:49.939Z,-22.98
2022-12-04T15:39:56.578Z,-23.29
2022-12-04T15:43:17.577Z,-23.51
2022-12-04T15:46:31.798Z,-23.34
2022-12-04T15:49:36.249Z,-23.52
2022-12-04T15:52:49.921Z,-23.70
2022-12-04T15:55:57.745Z,-23.70
2022-12-04T15:59:03.507Z,-23.56
2022-12-04T16:02:30.513Z,-23.58
2022-12-04T16:05:38.056Z,-23.63
2022-12-04T16:08:44.973Z,-23.77
2022-12-04T16:12:18.077Z,-23.35
2022-12-04T16:15:23.735Z,-23.22
2022-12-04T16:18:29.629Z,-23.41
2022-12-04T16:21:34.163Z,-23.63
2022-12-04T16:24:38.674Z,-23.99
2022-12-04T16:27:43.053Z,-23.96
2022-12-04T16:30:47.951Z,-23.76
2022-12-04T16:33:53.067Z,-24.09
2022-12-04T16:36:59.036Z,-23.56
2022-12-04T16:40:07.267Z,-23.89
2022-12-04T16:43:15.907Z,-23.83
2022-12-04T16:46:21.555Z,-23.90
2022-12-04T16:49:26.142Z,-24.01
2022-12-04T16:52:30.607Z,-24.24
2022-12-04T16:55:40.726Z,-24.70
2022-12-04T16:58:45.394Z,-24.34
2022-12-04T17:01:51.251Z,-24.07
2022-12-04T17:04:57.813Z,-23.88
2022-12-04T17:08:03.173Z,-23.62
2022-12-04T17:11:11.625Z,-23.90
2022-12-04T17:14:16.234Z,-24.06
2022-12-04T17:17:20.758Z,-23.83
2022-12-04T17:20:25.806Z,-24.42
2022-12-04T17:23:30.150Z,-24.33
2022-12-04T17:26:34.565Z,-24.24
2022-12-04T17:29:38.867Z,-24.46
2022-12-04T17:32:43.456Z,-24.18
2022-12-04T17:35:47.360Z,-23.91
2022-12-04T17:38:58.567Z,-23.85
2022-12-04T17:42:03.313Z,-24.19
2022-12-04T17:45:09.933Z,-24.10
2022-12-04T17:48:14.603Z,-23.80
2022-12-04T17:51:21.823Z,-23.53
2022-12-04T17:54:27.567Z,-23.61
2022-12-04T17:57:32.043Z,-23.79
2022-12-04T18:00:36.110Z,-23.99
2022-12-04T18:03:43.663Z,-24.04
2022-12-04T18:06:49.602Z,-24.34
2022-12-04T18:09:54.169Z,-24.03
2022-12-04T18:12:58.695Z,-23.93
2022-12-04T18:16:07.852Z,-23.70
2022-12-04T18:19:13.707Z,-24.42
2022-12-04T18:22:18.149Z,-24.53
2022-12-04T18:25:22.756Z,-24.85
2022-12-04T18:28:30.442Z,-24.68
2022-12-04T18:31:35.458Z,-24.84
2022-12-04T18:34:41.176Z,-24.64
2022-12-04T18:37:47.161Z,-25.21
2022-12-04T18:40:52.045Z,-25.43
2022-12-04T18:43:56.640Z,-24.49
2022-12-04T18:47:01.543Z,-24.52
2022-12-04T18:50:05.894Z,-24.51
2022-12-04T18:53:12.862Z,-24.32
2022-12-04T18:56:18.347Z,-24.11
2022-12-04T18:59:26.536Z,-24.71
2022-12-04T19:02:32.192Z,-25.28
2022-12-04T19:05:36.973Z,-24.72
2022-12-04T19:08:43.515Z,-25.01
2022-12-04T19:11:49.787Z,-24.50
2022-12-04T19:14:54.158Z,-24.60
2022-12-04T19:17:58.452Z,-25.13
2022-12-04T19:21:06.643Z,-24.92
2022-12-04T19:24:11.759Z,-24.68
2022-12-04T19:27:16.245Z,-24.94
2022-12-04T19:30:22.242Z,-24.23
2022-12-04T19:33:26.770Z,-25.12
2022-12-04T19:36:31.769Z,-25.25
2022-12-04T19:39:36.138Z,-25.42
2022-12-04T19:42:40.739Z,-25.27
2022-12-04T19:45:53.817Z,-24.57
2022-12-04T19:49:02.695Z,-24.61
2022-12-04T19:52:07.446Z,-24.60
2022-12-04T19:55:12.063Z,-24.46
2022-12-04T19:58:16.358Z,-24.71
2022-12-04T20:01:25.168Z,-24.63
2022-12-04T20:04:29.681Z,-24.56
2022-12-04T20:07:34.097Z,-25.12
2022-12-04T20:10:38.849Z,-25.01
2022-12-04T20:13:44.805Z,-24.87
2022-12-04T20:16:49.404Z,-24.88
2022-12-04T20:19:54.441Z,-24.70
2022-12-04T20:22:59.451Z,-24.64
2022-12-04T20:26:09.502Z,-24.81
2022-12-04T20:29:16.071Z,-25.08
2022-12-04T20:32:20.513Z,-25.03
2022-12-04T20:35:24.776Z,-25.52
2022-12-04T20:38:28.955Z,-25.43
2022-12-04T20:41:34.163Z,-25.02
2022-12-04T20:44:38.676Z,-25.16
2022-12-04T20:47:42.639Z,-25.24
2022-12-04T20:50:47.023Z,-25.40
2022-12-04T20:53:52.715Z,-25.45
2022-12-04T20:56:57.945Z,-25.35
2022-12-04T21:00:02.997Z,-25.32
2022-12-04T21:03:07.597Z,-25.06
2022-12-04T21:06:24.985Z,-24.77
2022-12-04T21:09:31.649Z,-25.24
2022-12-04T21:12:54.259Z,-25.21
2022-12-04T21:16:04.525Z,-25.33
2022-12-04T21:19:11.755Z,-25.39
2022-12-04T21:22:17.619Z,-25.29
2022-12-04T21:25:21.850Z,-25.24
2022-12-04T21:28:26.467Z,-25.41
2022-12-04T21:31:31.363Z,-25.50
2022-12-04T21:34:36.322Z,-25.39
2022-12-04T21:37:40.582Z,-25.48
2022-12-04T21:40:44.916Z,-25.43
2022-12-04T21:43:49.519Z,-25.53
2022-12-04T21:46:53.682Z,-25.52
2022-12-04T21:49:58.261Z,-25.51
2022-12-04T21:53:02.716Z,-25.88
2022-12-04T21:56:07.480Z,-25.51
2022-12-04T21:59:12.095Z,-25.62
2022-12-04T22:02:17.786Z,-25.67
2022-12-04T22:05:22.190Z,-25.76
2022-12-04T22:08:26.957Z,-25.56
2022-12-04T22:11:31.405Z,-25.64
2022-12-04T22:14:35.839Z,-25.80
2022-12-04T22:17:40.054Z,-25.65
2022-12-04T22:20:45.241Z,-25.74
2022-12-04T22:23:49.582Z,-25.93
2022-12-04T22:26:53.897Z,-26.16
2022-12-04T22:29:58.138Z,-26.35
2022-12-04T22:33:03.922Z,-25.81
2022-12-04T22:36:11.384Z,-25.74
2022-12-04T22:39:15.717Z,-25.66
2022-12-04T22:42:19.715Z,-25.52
2022-12-04T22:45:23.927Z,-25.72
2022-12-04T22:48:31.259Z,-25.54
2022-12-04T22:51:35.484Z,-25.27
2022-12-04T22:54:39.768Z,-25.39
2022-12-04T22:57:44.198Z,-25.30
2022-12-04T23:00:49.328Z,-25.29
2022-12-04T23:03:54.516Z,-25.00
2022-12-04T23:06:59.125Z,-25.35
2022-12-04T23:10:03.872Z,-25.16
2022-12-04T23:13:08.177Z,-25.26
2022-12-04T23:16:18.369Z,-25.30
2022-12-04T23:19:24.896Z,-24.97
2022-12-04T23:22:29.225Z,-24.98
2022-12-04T23:25:33.852Z,-24.32
2022-12-04T23:28:38.405Z,-23.66
2022-12-04T23:31:42.938Z,-23.01
2022-12-04T23:34:47.685Z,-22.61
2022-12-04T23:37:51.653Z,-22.32
2022-12-04T23:41:12.814Z,-22.22
2022-12-04T23:44:17.168Z,-21.36
2022-12-04T23:47:21.584Z,-20.90
2022-12-04T23:50:26.089Z,-20.02
2022-12-04T23:53:30.727Z,-19.54
2022-12-04T23:56:35.289Z,-19.67
2022-12-04T23:59:39.684Z,-18.72
